sensor_id;sensor_type;location;lat;lon;timestamp;temperature;humidity
63013;DHT22;62113;45.624;11.700;2023-01-15T00:00:10;7.80;67.00
63013;DHT22;62113;45.624;11.700;2023-01-15T00:02:35;7.80;67.10
63013;DHT22;62113;45.624;11.700;2023-01-15T00:05:01;7.80;67.10
63013;DHT22;62113;45.624;11.700;2023-01-15T00:07:28;7.80;67.10
63013;DHT22;62113;45.624;11.700;2023-01-15T00:09:53;7.70;67.10
63013;DHT22;62113;45.624;11.700;2023-01-15T00:12:19;7.70;67.30
63013;DHT22;62113;45.624;11.700;2023-01-15T00:14:44;7.70;67.50
63013;DHT22;62113;45.624;11.700;2023-01-15T00:17:10;7.70;67.40
63013;DHT22;62113;45.624;11.700;2023-01-15T00:19:35;7.70;67.50
63013;DHT22;62113;45.624;11.700;2023-01-15T00:22:01;7.70;67.40
63013;DHT22;62113;45.624;11.700;2023-01-15T00:24:26;7.70;67.70
63013;DHT22;62113;45.624;11.700;2023-01-15T00:27:10;7.70;67.60
63013;DHT22;62113;45.624;11.700;2023-01-15T00:29:55;7.70;67.40
63013;DHT22;62113;45.624;11.700;2023-01-15T00:32:20;7.80;67.40
63013;DHT22;62113;45.624;11.700;2023-01-15T00:34:46;7.70;67.50
63013;DHT22;62113;45.624;11.700;2023-01-15T00:37:11;7.80;67.40
63013;DHT22;62113;45.624;11.700;2023-01-15T00:39:36;7.80;67.20
63013;DHT22;62113;45.624;11.700;2023-01-15T00:42:02;7.70;67.20
63013;DHT22;62113;45.624;11.700;2023-01-15T00:44:28;7.70;67.30
63013;DHT22;62113;45.624;11.700;2023-01-15T00:46:53;7.70;67.30
63013;DHT22;62113;45.624;11.700;2023-01-15T00:49:19;7.70;67.50
63013;DHT22;62113;45.624;11.700;2023-01-15T00:51:44;7.70;67.50
63013;DHT22;62113;45.624;11.700;2023-01-15T00:54:10;7.80;67.40
63013;DHT22;62113;45.624;11.700;2023-01-15T00:56:35;7.80;67.50
63013;DHT22;62113;45.624;11.700;2023-01-15T00:59:02;7.80;67.80
63013;DHT22;62113;45.624;11.700;2023-01-15T01:01:27;7.80;67.60
63013;DHT22;62113;45.624;11.700;2023-01-15T01:03:53;7.80;67.70
63013;DHT22;62113;45.624;11.700;2023-01-15T01:06:19;7.80;67.70
63013;DHT22;62113;45.624;11.700;2023-01-15T01:08:44;7.80;67.90
63013;DHT22;62113;45.624;11.700;2023-01-15T01:11:10;7.80;67.60
63013;DHT22;62113;45.624;11.700;2023-01-15T01:13:37;7.80;67.80
63013;DHT22;62113;45.624;11.700;2023-01-15T01:16:03;7.90;68.10
63013;DHT22;62113;45.624;11.700;2023-01-15T01:18:28;8.00;68.00
63013;DHT22;62113;45.624;11.700;2023-01-15T01:20:54;8.00;67.80
63013;DHT22;62113;45.624;11.700;2023-01-15T01:23:21;8.00;67.80
63013;DHT22;62113;45.624;11.700;2023-01-15T01:25:46;7.90;67.70
63013;DHT22;62113;45.624;11.700;2023-01-15T01:28:12;8.00;67.80
63013;DHT22;62113;45.624;11.700;2023-01-15T01:30:37;8.00;67.90
63013;DHT22;62113;45.624;11.700;2023-01-15T01:33:03;8.00;67.90
63013;DHT22;62113;45.624;11.700;2023-01-15T01:35:29;8.00;67.80
63013;DHT22;62113;45.624;11.700;2023-01-15T01:37:54;8.00;68.10
63013;DHT22;62113;45.624;11.700;2023-01-15T01:40:20;8.10;68.00
63013;DHT22;62113;45.624;11.700;2023-01-15T01:42:45;8.10;67.80
63013;DHT22;62113;45.624;11.700;2023-01-15T01:45:30;8.10;67.80
63013;DHT22;62113;45.624;11.700;2023-01-15T01:47:58;8.10;67.80
63013;DHT22;62113;45.624;11.700;2023-01-15T01:50:24;8.10;67.60
63013;DHT22;62113;45.624;11.700;2023-01-15T01:52:55;8.10;67.70
63013;DHT22;62113;45.624;11.700;2023-01-15T01:55:22;8.10;67.80
63013;DHT22;62113;45.624;11.700;2023-01-15T01:57:48;8.10;67.80
63013;DHT22;62113;45.624;11.700;2023-01-15T02:00:14;8.10;67.90
63013;DHT22;62113;45.624;11.700;2023-01-15T02:02:41;8.10;67.80
63013;DHT22;62113;45.624;11.700;2023-01-15T02:05:08;8.20;67.80
63013;DHT22;62113;45.624;11.700;2023-01-15T02:07:37;8.20;67.70
63013;DHT22;62113;45.624;11.700;2023-01-15T02:10:04;8.10;67.80
63013;DHT22;62113;45.624;11.700;2023-01-15T02:12:31;8.10;67.90
63013;DHT22;62113;45.624;11.700;2023-01-15T02:27:47;8.20;68.10
63013;DHT22;62113;45.624;11.700;2023-01-15T02:30:17;8.10;68.20
63013;DHT22;62113;45.624;11.700;2023-01-15T02:33:03;8.10;68.20
63013;DHT22;62113;45.624;11.700;2023-01-15T02:35:35;8.20;68.20
63013;DHT22;62113;45.624;11.700;2023-01-15T02:38:03;8.20;68.30
63013;DHT22;62113;45.624;11.700;2023-01-15T02:40:30;8.20;68.50
63013;DHT22;62113;45.624;11.700;2023-01-15T02:42:56;8.20;68.30
63013;DHT22;62113;45.624;11.700;2023-01-15T02:45:24;8.20;68.10
63013;DHT22;62113;45.624;11.700;2023-01-15T02:47:54;8.20;68.20
63013;DHT22;62113;45.624;11.700;2023-01-15T02:50:24;8.20;68.20
63013;DHT22;62113;45.624;11.700;2023-01-15T02:52:51;8.20;68.00
63013;DHT22;62113;45.624;11.700;2023-01-15T02:55:23;8.20;68.00
63013;DHT22;62113;45.624;11.700;2023-01-15T02:57:50;8.20;68.10
63013;DHT22;62113;45.624;11.700;2023-01-15T03:00:16;8.20;68.10
63013;DHT22;62113;45.624;11.700;2023-01-15T03:02:48;8.20;68.10
63013;DHT22;62113;45.624;11.700;2023-01-15T03:05:31;8.20;68.20
63013;DHT22;62113;45.624;11.700;2023-01-15T03:07:59;8.20;68.20
63013;DHT22;62113;45.624;11.700;2023-01-15T03:10:45;8.20;68.20
63013;DHT22;62113;45.624;11.700;2023-01-15T03:13:14;8.20;68.00
63013;DHT22;62113;45.624;11.700;2023-01-15T03:15:43;8.20;68.00
63013;DHT22;62113;45.624;11.700;2023-01-15T03:18:30;8.10;67.70
63013;DHT22;62113;45.624;11.700;2023-01-15T03:20:58;8.10;67.80
63013;DHT22;62113;45.624;11.700;2023-01-15T03:23:24;8.10;68.10
63013;DHT22;62113;45.624;11.700;2023-01-15T03:25:51;8.00;68.20
63013;DHT22;62113;45.624;11.700;2023-01-15T03:28:19;8.00;68.00
63013;DHT22;62113;45.624;11.700;2023-01-15T03:30:46;8.00;68.10
63013;DHT22;62113;45.624;11.700;2023-01-15T03:33:11;8.00;68.10
63013;DHT22;62113;45.624;11.700;2023-01-15T03:35:47;7.90;68.30
63013;DHT22;62113;45.624;11.700;2023-01-15T03:38:14;7.90;68.50
63013;DHT22;62113;45.624;11.700;2023-01-15T03:43:19;7.90;68.90
63013;DHT22;62113;45.624;11.700;2023-01-15T03:46:17;7.90;69.10
63013;DHT22;62113;45.624;11.700;2023-01-15T03:48:50;7.90;69.30
63013;DHT22;62113;45.624;11.700;2023-01-15T03:51:24;8.00;69.20
63013;DHT22;62113;45.624;11.700;2023-01-15T03:53:54;8.00;69.00
63013;DHT22;62113;45.624;11.700;2023-01-15T04:01:32;8.00;68.90
63013;DHT22;62113;45.624;11.700;2023-01-15T04:03:59;8.00;69.00
63013;DHT22;62113;45.624;11.700;2023-01-15T04:06:26;8.00;69.00
63013;DHT22;62113;45.624;11.700;2023-01-15T04:08:53;8.00;69.00
63013;DHT22;62113;45.624;11.700;2023-01-15T04:11:23;8.00;68.90
63013;DHT22;62113;45.624;11.700;2023-01-15T04:13:49;8.00;68.90
63013;DHT22;62113;45.624;11.700;2023-01-15T04:16:15;7.90;68.90
63013;DHT22;62113;45.624;11.700;2023-01-15T04:18:43;8.00;69.00
63013;DHT22;62113;45.624;11.700;2023-01-15T04:21:09;8.00;69.10
63013;DHT22;62113;45.624;11.700;2023-01-15T04:23:34;8.00;69.20
63013;DHT22;62113;45.624;11.700;2023-01-15T04:26:00;8.00;69.10
63013;DHT22;62113;45.624;11.700;2023-01-15T04:28:25;8.00;69.00
63013;DHT22;62113;45.624;11.700;2023-01-15T04:30:51;8.00;69.00
63013;DHT22;62113;45.624;11.700;2023-01-15T04:33:16;8.00;68.90
63013;DHT22;62113;45.624;11.700;2023-01-15T04:35:42;8.00;68.80
63013;DHT22;62113;45.624;11.700;2023-01-15T04:38:07;8.00;68.80
63013;DHT22;62113;45.624;11.700;2023-01-15T04:40:33;8.00;68.70
63013;DHT22;62113;45.624;11.700;2023-01-15T04:43:17;8.00;68.70
63013;DHT22;62113;45.624;11.700;2023-01-15T04:46:01;7.90;68.80
63013;DHT22;62113;45.624;11.700;2023-01-15T04:48:27;7.90;68.80
63013;DHT22;62113;45.624;11.700;2023-01-15T04:50:52;7.80;69.00
63013;DHT22;62113;45.624;11.700;2023-01-15T04:53:18;7.80;68.80
63013;DHT22;62113;45.624;11.700;2023-01-15T04:55:43;7.80;69.00
63013;DHT22;62113;45.624;11.700;2023-01-15T04:58:09;7.80;69.20
63013;DHT22;62113;45.624;11.700;2023-01-15T05:00:34;7.80;68.90
63013;DHT22;62113;45.624;11.700;2023-01-15T05:03:00;7.80;69.10
63013;DHT22;62113;45.624;11.700;2023-01-15T05:05:25;7.80;69.40
63013;DHT22;62113;45.624;11.700;2023-01-15T05:07:51;7.80;69.10
63013;DHT22;62113;45.624;11.700;2023-01-15T05:10:16;7.80;69.10
63013;DHT22;62113;45.624;11.700;2023-01-15T05:12:42;7.80;69.00
63013;DHT22;62113;45.624;11.700;2023-01-15T05:15:07;7.80;69.00
63013;DHT22;62113;45.624;11.700;2023-01-15T05:17:33;7.90;68.90
63013;DHT22;62113;45.624;11.700;2023-01-15T05:19:58;7.90;69.10
63013;DHT22;62113;45.624;11.700;2023-01-15T05:22:24;7.90;69.30
63013;DHT22;62113;45.624;11.700;2023-01-15T05:24:49;8.00;69.00
63013;DHT22;62113;45.624;11.700;2023-01-15T05:27:15;7.90;68.80
63013;DHT22;62113;45.624;11.700;2023-01-15T05:29:41;7.90;68.70
63013;DHT22;62113;45.624;11.700;2023-01-15T05:32:06;7.90;68.80
63013;DHT22;62113;45.624;11.700;2023-01-15T05:34:31;7.90;68.90
63013;DHT22;62113;45.624;11.700;2023-01-15T05:36:57;8.00;68.80
63013;DHT22;62113;45.624;11.700;2023-01-15T05:39:22;7.90;68.90
63013;DHT22;62113;45.624;11.700;2023-01-15T05:41:48;7.90;69.10
63013;DHT22;62113;45.624;11.700;2023-01-15T05:44:15;7.90;69.10
63013;DHT22;62113;45.624;11.700;2023-01-15T05:46:42;7.90;69.20
63013;DHT22;62113;45.624;11.700;2023-01-15T05:49:11;7.90;69.30
63013;DHT22;62113;45.624;11.700;2023-01-15T05:51:37;7.90;69.30
63013;DHT22;62113;45.624;11.700;2023-01-15T05:54:04;7.90;69.30
63013;DHT22;62113;45.624;11.700;2023-01-15T05:56:29;8.00;69.20
63013;DHT22;62113;45.624;11.700;2023-01-15T05:58:55;8.00;69.40
63013;DHT22;62113;45.624;11.700;2023-01-15T06:01:20;8.00;69.60
63013;DHT22;62113;45.624;11.700;2023-01-15T06:03:46;8.00;69.50
63013;DHT22;62113;45.624;11.700;2023-01-15T06:06:13;8.00;69.80
63013;DHT22;62113;45.624;11.700;2023-01-15T06:08:39;8.00;69.40
63013;DHT22;62113;45.624;11.700;2023-01-15T06:11:04;8.00;69.30
63013;DHT22;62113;45.624;11.700;2023-01-15T06:13:31;8.00;69.30
63013;DHT22;62113;45.624;11.700;2023-01-15T06:16:00;8.00;69.30
63013;DHT22;62113;45.624;11.700;2023-01-15T06:18:26;8.00;69.10
63013;DHT22;62113;45.624;11.700;2023-01-15T06:20:51;8.10;69.30
63013;DHT22;62113;45.624;11.700;2023-01-15T06:23:17;8.10;69.30
63013;DHT22;62113;45.624;11.700;2023-01-15T06:25:43;8.10;69.30
63013;DHT22;62113;45.624;11.700;2023-01-15T06:28:09;8.10;69.70
63013;DHT22;62113;45.624;11.700;2023-01-15T06:30:35;8.10;69.60
63013;DHT22;62113;45.624;11.700;2023-01-15T06:33:01;8.10;69.50
63013;DHT22;62113;45.624;11.700;2023-01-15T06:35:27;8.10;70.10
63013;DHT22;62113;45.624;11.700;2023-01-15T06:37:52;8.10;70.00
63013;DHT22;62113;45.624;11.700;2023-01-15T06:40:18;8.10;69.80
63013;DHT22;62113;45.624;11.700;2023-01-15T06:42:43;8.10;69.70
63013;DHT22;62113;45.624;11.700;2023-01-15T06:45:28;8.10;69.60
63013;DHT22;62113;45.624;11.700;2023-01-15T06:48:15;8.10;69.70
63013;DHT22;62113;45.624;11.700;2023-01-15T06:50:41;8.10;70.10
63013;DHT22;62113;45.624;11.700;2023-01-15T06:53:06;8.10;70.50
63013;DHT22;62113;45.624;11.700;2023-01-15T06:55:32;8.20;70.20
63013;DHT22;62113;45.624;11.700;2023-01-15T06:57:57;8.10;69.60
63013;DHT22;62113;45.624;11.700;2023-01-15T07:00:23;8.10;69.90
63013;DHT22;62113;45.624;11.700;2023-01-15T07:02:48;8.00;70.20
63013;DHT22;62113;45.624;11.700;2023-01-15T07:05:14;8.00;70.40
63013;DHT22;62113;45.624;11.700;2023-01-15T07:07:39;8.10;70.40
63013;DHT22;62113;45.624;11.700;2023-01-15T07:10:05;8.10;70.40
63013;DHT22;62113;45.624;11.700;2023-01-15T07:12:32;8.20;70.30
63013;DHT22;62113;45.624;11.700;2023-01-15T07:14:58;8.20;70.20
63013;DHT22;62113;45.624;11.700;2023-01-15T07:17:24;8.20;70.30
63013;DHT22;62113;45.624;11.700;2023-01-15T07:19:49;8.20;70.30
63013;DHT22;62113;45.624;11.700;2023-01-15T07:22:15;8.20;70.50
63013;DHT22;62113;45.624;11.700;2023-01-15T07:24:40;8.20;70.60
63013;DHT22;62113;45.624;11.700;2023-01-15T07:27:06;8.20;71.00
63013;DHT22;62113;45.624;11.700;2023-01-15T07:29:31;8.30;71.00
63013;DHT22;62113;45.624;11.700;2023-01-15T07:31:57;8.30;71.00
63013;DHT22;62113;45.624;11.700;2023-01-15T07:34:22;8.40;71.20
63013;DHT22;62113;45.624;11.700;2023-01-15T07:36:48;8.40;71.30
63013;DHT22;62113;45.624;11.700;2023-01-15T07:39:13;8.30;71.20
63013;DHT22;62113;45.624;11.700;2023-01-15T07:41:39;8.40;70.30
63013;DHT22;62113;45.624;11.700;2023-01-15T07:44:23;8.40;71.00
63013;DHT22;62113;45.624;11.700;2023-01-15T07:47:28;8.30;71.00
63013;DHT22;62113;45.624;11.700;2023-01-15T07:50:13;8.30;70.30
63013;DHT22;62113;45.624;11.700;2023-01-15T07:52:39;8.30;70.90
63013;DHT22;62113;45.624;11.700;2023-01-15T07:55:05;8.40;71.30
63013;DHT22;62113;45.624;11.700;2023-01-15T07:57:32;8.40;71.00
63013;DHT22;62113;45.624;11.700;2023-01-15T07:59:58;8.40;71.00
63013;DHT22;62113;45.624;11.700;2023-01-15T08:02:24;8.40;70.90
63013;DHT22;62113;45.624;11.700;2023-01-15T08:04:49;8.40;70.80
63013;DHT22;62113;45.624;11.700;2023-01-15T08:07:15;8.40;70.90
63013;DHT22;62113;45.624;11.700;2023-01-15T08:09:40;8.50;71.30
63013;DHT22;62113;45.624;11.700;2023-01-15T08:12:06;8.50;71.80
63013;DHT22;62113;45.624;11.700;2023-01-15T08:14:50;8.50;71.70
63013;DHT22;62113;45.624;11.700;2023-01-15T08:17:34;8.60;71.80
63013;DHT22;62113;45.624;11.700;2023-01-15T08:20:01;8.60;71.30
63013;DHT22;62113;45.624;11.700;2023-01-15T08:22:27;8.70;71.50
63013;DHT22;62113;45.624;11.700;2023-01-15T08:24:53;8.70;71.80
63013;DHT22;62113;45.624;11.700;2023-01-15T08:27:18;8.70;71.60
63013;DHT22;62113;45.624;11.700;2023-01-15T08:29:44;8.70;71.60
63013;DHT22;62113;45.624;11.700;2023-01-15T08:32:09;8.70;71.10
63013;DHT22;62113;45.624;11.700;2023-01-15T08:34:34;8.70;70.70
63013;DHT22;62113;45.624;11.700;2023-01-15T08:37:00;8.70;71.00
63013;DHT22;62113;45.624;11.700;2023-01-15T08:39:26;8.70;70.80
63013;DHT22;62113;45.624;11.700;2023-01-15T08:41:52;8.80;71.00
63013;DHT22;62113;45.624;11.700;2023-01-15T08:44:18;8.80;70.40
63013;DHT22;62113;45.624;11.700;2023-01-15T08:46:46;8.80;70.90
63013;DHT22;62113;45.624;11.700;2023-01-15T08:49:12;8.80;71.10
63013;DHT22;62113;45.624;11.700;2023-01-15T08:51:37;8.80;71.70
63013;DHT22;62113;45.624;11.700;2023-01-15T08:54:03;8.80;71.80
63013;DHT22;62113;45.624;11.700;2023-01-15T08:56:29;8.80;71.80
63013;DHT22;62113;45.624;11.700;2023-01-15T08:58:54;8.90;71.70
63013;DHT22;62113;45.624;11.700;2023-01-15T09:01:19;8.90;71.90
63013;DHT22;62113;45.624;11.700;2023-01-15T09:03:45;8.90;71.50
63013;DHT22;62113;45.624;11.700;2023-01-15T09:06:10;9.00;71.40
63013;DHT22;62113;45.624;11.700;2023-01-15T09:08:37;9.00;70.90
63013;DHT22;62113;45.624;11.700;2023-01-15T09:11:03;9.00;70.60
63013;DHT22;62113;45.624;11.700;2023-01-15T09:13:29;9.00;70.70
63013;DHT22;62113;45.624;11.700;2023-01-15T09:15:58;9.00;70.90
63013;DHT22;62113;45.624;11.700;2023-01-15T09:18:24;9.00;71.00
63013;DHT22;62113;45.624;11.700;2023-01-15T09:20:49;9.10;71.20
63013;DHT22;62113;45.624;11.700;2023-01-15T09:23:15;9.10;71.20
63013;DHT22;62113;45.624;11.700;2023-01-15T09:25:49;9.10;71.40
63013;DHT22;62113;45.624;11.700;2023-01-15T09:28:15;9.10;71.50
63013;DHT22;62113;45.624;11.700;2023-01-15T09:30:40;9.10;71.40
63013;DHT22;62113;45.624;11.700;2023-01-15T09:33:06;9.10;71.40
63013;DHT22;62113;45.624;11.700;2023-01-15T09:35:31;9.20;71.40
63013;DHT22;62113;45.624;11.700;2023-01-15T09:37:57;9.20;71.40
63013;DHT22;62113;45.624;11.700;2023-01-15T09:42:51;9.20;71.10
63013;DHT22;62113;45.624;11.700;2023-01-15T09:48:06;9.30;71.60
63013;DHT22;62113;45.624;11.700;2023-01-15T09:55:33;9.40;71.50
63013;DHT22;62113;45.624;11.700;2023-01-15T09:58:01;9.40;71.30
63013;DHT22;62113;45.624;11.700;2023-01-15T10:00:32;9.40;71.40
63013;DHT22;62113;45.624;11.700;2023-01-15T10:05:31;9.40;71.50
63013;DHT22;62113;45.624;11.700;2023-01-15T10:10:31;9.50;71.80
63013;DHT22;62113;45.624;11.700;2023-01-15T10:13:05;9.50;71.80
63013;DHT22;62113;45.624;11.700;2023-01-15T10:17:58;9.50;71.40
63013;DHT22;62113;45.624;11.700;2023-01-15T10:20:35;9.50;71.30
63013;DHT22;62113;45.624;11.700;2023-01-15T10:25:31;9.60;70.80
63013;DHT22;62113;45.624;11.700;2023-01-15T10:28:01;9.60;70.90
63013;DHT22;62113;45.624;11.700;2023-01-15T10:30:35;9.60;70.70
63013;DHT22;62113;45.624;11.700;2023-01-15T10:33:05;9.60;70.70
63013;DHT22;62113;45.624;11.700;2023-01-15T10:38:48;9.60;70.70
63013;DHT22;62113;45.624;11.700;2023-01-15T10:41:27;9.70;70.60
63013;DHT22;62113;45.624;11.700;2023-01-15T10:43:59;9.70;70.60
63013;DHT22;62113;45.624;11.700;2023-01-15T10:46:28;9.70;70.70
63013;DHT22;62113;45.624;11.700;2023-01-15T10:49:11;9.70;70.70
63013;DHT22;62113;45.624;11.700;2023-01-15T11:02:00;9.70;70.50
63013;DHT22;62113;45.624;11.700;2023-01-15T11:04:28;9.70;70.80
63013;DHT22;62113;45.624;11.700;2023-01-15T11:06:55;9.70;70.80
63013;DHT22;62113;45.624;11.700;2023-01-15T11:09:22;9.70;70.50
63013;DHT22;62113;45.624;11.700;2023-01-15T11:11:52;9.80;70.70
63013;DHT22;62113;45.624;11.700;2023-01-15T11:14:57;9.80;71.10
63013;DHT22;62113;45.624;11.700;2023-01-15T11:17:35;9.80;71.20
63013;DHT22;62113;45.624;11.700;2023-01-15T11:22:46;9.80;70.70
63013;DHT22;62113;45.624;11.700;2023-01-15T11:25:11;9.80;70.80
63013;DHT22;62113;45.624;11.700;2023-01-15T11:27:38;9.80;70.70
63013;DHT22;62113;45.624;11.700;2023-01-15T11:30:05;9.80;70.70
63013;DHT22;62113;45.624;11.700;2023-01-15T11:32:37;9.80;70.20
63013;DHT22;62113;45.624;11.700;2023-01-15T11:35:13;9.90;70.30
63013;DHT22;62113;45.624;11.700;2023-01-15T11:37:38;9.90;70.80
63013;DHT22;62113;45.624;11.700;2023-01-15T11:40:04;9.90;70.90
63013;DHT22;62113;45.624;11.700;2023-01-15T11:42:32;9.90;70.50
63013;DHT22;62113;45.624;11.700;2023-01-15T11:45:18;10.00;70.70
63013;DHT22;62113;45.624;11.700;2023-01-15T11:48:08;10.00;70.90
63013;DHT22;62113;45.624;11.700;2023-01-15T11:51:01;10.00;71.40
63013;DHT22;62113;45.624;11.700;2023-01-15T11:53:28;10.00;70.70
63013;DHT22;62113;45.624;11.700;2023-01-15T11:55:57;10.00;70.50
63013;DHT22;62113;45.624;11.700;2023-01-15T11:58:28;10.00;70.50
63013;DHT22;62113;45.624;11.700;2023-01-15T12:00:56;10.00;71.00
63013;DHT22;62113;45.624;11.700;2023-01-15T12:03:24;10.00;71.60
63013;DHT22;62113;45.624;11.700;2023-01-15T12:05:58;10.00;71.00
63013;DHT22;62113;45.624;11.700;2023-01-15T12:11:17;10.10;71.80
63013;DHT22;62113;45.624;11.700;2023-01-15T12:13:57;10.10;71.90
63013;DHT22;62113;45.624;11.700;2023-01-15T12:16:29;10.10;71.90
63013;DHT22;62113;45.624;11.700;2023-01-15T12:23:57;10.20;72.30
63013;DHT22;62113;45.624;11.700;2023-01-15T12:26:28;10.20;72.40
63013;DHT22;62113;45.624;11.700;2023-01-15T12:31:24;10.20;72.80
63013;DHT22;62113;45.624;11.700;2023-01-15T12:34:13;10.20;72.60
63013;DHT22;62113;45.624;11.700;2023-01-15T12:39:17;10.20;71.50
63013;DHT22;62113;45.624;11.700;2023-01-15T12:41:44;10.20;71.80
63013;DHT22;62113;45.624;11.700;2023-01-15T12:44:45;10.20;71.60
63013;DHT22;62113;45.624;11.700;2023-01-15T12:47:47;10.20;71.80
63013;DHT22;62113;45.624;11.700;2023-01-15T12:52:49;10.20;71.30
63013;DHT22;62113;45.624;11.700;2023-01-15T12:55:21;10.20;71.60
63013;DHT22;62113;45.624;11.700;2023-01-15T12:57:52;10.20;71.60
63013;DHT22;62113;45.624;11.700;2023-01-15T13:00:23;10.20;72.10
63013;DHT22;62113;45.624;11.700;2023-01-15T13:05:19;10.10;72.60
63013;DHT22;62113;45.624;11.700;2023-01-15T13:07:58;10.10;72.90
63013;DHT22;62113;45.624;11.700;2023-01-15T13:10:26;10.00;72.80
63013;DHT22;62113;45.624;11.700;2023-01-15T13:12:57;10.00;72.80
63013;DHT22;62113;45.624;11.700;2023-01-15T13:15:25;10.00;72.90
63013;DHT22;62113;45.624;11.700;2023-01-15T13:23:08;10.00;72.40
63013;DHT22;62113;45.624;11.700;2023-01-15T13:33:38;10.00;73.90
63013;DHT22;62113;45.624;11.700;2023-01-15T13:38:31;10.00;73.30
63013;DHT22;62113;45.624;11.700;2023-01-15T13:40:58;10.00;73.50
63013;DHT22;62113;45.624;11.700;2023-01-15T13:43:30;10.00;73.40
63013;DHT22;62113;45.624;11.700;2023-01-15T13:45:56;10.00;73.70
63013;DHT22;62113;45.624;11.700;2023-01-15T13:50:55;10.00;72.60
63013;DHT22;62113;45.624;11.700;2023-01-15T13:55:55;9.90;73.00
63013;DHT22;62113;45.624;11.700;2023-01-15T13:58:27;9.90;73.00
63013;DHT22;62113;45.624;11.700;2023-01-15T14:00:59;9.80;73.10
63013;DHT22;62113;45.624;11.700;2023-01-15T14:03:26;9.80;73.30
63013;DHT22;62113;45.624;11.700;2023-01-15T14:05:53;9.80;73.00
63013;DHT22;62113;45.624;11.700;2023-01-15T14:08:22;9.80;73.60
63013;DHT22;62113;45.624;11.700;2023-01-15T14:10:49;9.80;74.00
63013;DHT22;62113;45.624;11.700;2023-01-15T14:13:26;9.80;73.40
63013;DHT22;62113;45.624;11.700;2023-01-15T14:16:55;9.80;73.20
63013;DHT22;62113;45.624;11.700;2023-01-15T14:19:13;9.80;73.30
63013;DHT22;62113;45.624;11.700;2023-01-15T14:21:52;9.80;73.50
63013;DHT22;62113;45.624;11.700;2023-01-15T14:34:28;9.70;74.60
63013;DHT22;62113;45.624;11.700;2023-01-15T14:39:45;9.70;75.00
63013;DHT22;62113;45.624;11.700;2023-01-15T14:47:44;9.70;75.10
63013;DHT22;62113;45.624;11.700;2023-01-15T14:52:49;9.70;75.00
63013;DHT22;62113;45.624;11.700;2023-01-15T14:55:15;9.60;74.60
63013;DHT22;62113;45.624;11.700;2023-01-15T14:57:41;9.60;75.40
63013;DHT22;62113;45.624;11.700;2023-01-15T15:00:07;9.70;74.90
63013;DHT22;62113;45.624;11.700;2023-01-15T15:02:38;9.70;74.80
63013;DHT22;62113;45.624;11.700;2023-01-15T15:05:08;9.60;74.40
63013;DHT22;62113;45.624;11.700;2023-01-15T15:07:41;9.70;75.00
63013;DHT22;62113;45.624;11.700;2023-01-15T15:12:40;9.60;74.90
63013;DHT22;62113;45.624;11.700;2023-01-15T15:20:06;9.50;74.60
63013;DHT22;62113;45.624;11.700;2023-01-15T15:22:39;9.50;75.50
63013;DHT22;62113;45.624;11.700;2023-01-15T15:25:07;9.50;75.70
63013;DHT22;62113;45.624;11.700;2023-01-15T15:27:34;9.50;76.20
63013;DHT22;62113;45.624;11.700;2023-01-15T15:30:06;9.50;75.50
63013;DHT22;62113;45.624;11.700;2023-01-15T15:32:31;9.50;75.80
63013;DHT22;62113;45.624;11.700;2023-01-15T15:35:04;9.40;76.10
63013;DHT22;62113;45.624;11.700;2023-01-15T15:37:30;9.50;75.80
63013;DHT22;62113;45.624;11.700;2023-01-15T15:42:35;9.50;75.50
63013;DHT22;62113;45.624;11.700;2023-01-15T15:45:28;9.50;75.90
63013;DHT22;62113;45.624;11.700;2023-01-15T15:48:16;9.50;75.60
63013;DHT22;62113;45.624;11.700;2023-01-15T15:51:01;9.50;75.50
63013;DHT22;62113;45.624;11.700;2023-01-15T15:53:28;9.50;75.80
63013;DHT22;62113;45.624;11.700;2023-01-15T15:55:53;9.50;75.70
63013;DHT22;62113;45.624;11.700;2023-01-15T15:58:34;9.50;75.70
63013;DHT22;62113;45.624;11.700;2023-01-15T16:01:01;9.50;75.60
63013;DHT22;62113;45.624;11.700;2023-01-15T16:03:27;9.50;76.00
63013;DHT22;62113;45.624;11.700;2023-01-15T16:05:54;9.50;76.50
63013;DHT22;62113;45.624;11.700;2023-01-15T16:08:20;9.50;75.80
63013;DHT22;62113;45.624;11.700;2023-01-15T16:10:46;9.40;76.30
63013;DHT22;62113;45.624;11.700;2023-01-15T16:13:18;9.40;75.90
63013;DHT22;62113;45.624;11.700;2023-01-15T16:15:45;9.40;75.80
63013;DHT22;62113;45.624;11.700;2023-01-15T16:18:33;9.40;76.50
63013;DHT22;62113;45.624;11.700;2023-01-15T16:21:00;9.40;75.50
63013;DHT22;62113;45.624;11.700;2023-01-15T16:23:26;9.40;75.70
63013;DHT22;62113;45.624;11.700;2023-01-15T16:26:00;9.40;76.30
63013;DHT22;62113;45.624;11.700;2023-01-15T16:28:30;9.30;75.90
63013;DHT22;62113;45.624;11.700;2023-01-15T16:30:57;9.30;76.10
63013;DHT22;62113;45.624;11.700;2023-01-15T16:33:23;9.30;76.20
63013;DHT22;62113;45.624;11.700;2023-01-15T16:35:54;9.30;76.70
63013;DHT22;62113;45.624;11.700;2023-01-15T16:38:19;9.30;76.50
63013;DHT22;62113;45.624;11.700;2023-01-15T16:40:45;9.30;76.30
63013;DHT22;62113;45.624;11.700;2023-01-15T16:43:20;9.30;76.30
63013;DHT22;62113;45.624;11.700;2023-01-15T16:48:25;9.30;75.90
63013;DHT22;62113;45.624;11.700;2023-01-15T16:50:55;9.30;76.10
63013;DHT22;62113;45.624;11.700;2023-01-15T16:55:54;9.30;76.40
63013;DHT22;62113;45.624;11.700;2023-01-15T16:58:30;9.30;76.60
63013;DHT22;62113;45.624;11.700;2023-01-15T17:00:57;9.30;76.80
63013;DHT22;62113;45.624;11.700;2023-01-15T17:03:23;9.30;76.60
63013;DHT22;62113;45.624;11.700;2023-01-15T17:05:50;9.30;76.80
63013;DHT22;62113;45.624;11.700;2023-01-15T17:08:32;9.30;76.80
63013;DHT22;62113;45.624;11.700;2023-01-15T17:11:04;9.30;76.90
63013;DHT22;62113;45.624;11.700;2023-01-15T17:16:04;9.30;76.90
63013;DHT22;62113;45.624;11.700;2023-01-15T17:18:30;9.30;76.80
63013;DHT22;62113;45.624;11.700;2023-01-15T17:20:55;9.30;77.00
63013;DHT22;62113;45.624;11.700;2023-01-15T17:23:22;9.30;76.90
63013;DHT22;62113;45.624;11.700;2023-01-15T17:25:49;9.30;76.90
63013;DHT22;62113;45.624;11.700;2023-01-15T17:28:15;9.30;77.00
63013;DHT22;62113;45.624;11.700;2023-01-15T17:30:43;9.30;77.00
63013;DHT22;62113;45.624;11.700;2023-01-15T17:33:11;9.30;77.20
63013;DHT22;62113;45.624;11.700;2023-01-15T17:35:38;9.30;76.90
63013;DHT22;62113;45.624;11.700;2023-01-15T17:38:05;9.30;76.80
63013;DHT22;62113;45.624;11.700;2023-01-15T17:40:32;9.30;76.70
63013;DHT22;62113;45.624;11.700;2023-01-15T17:42:58;9.30;76.80
63013;DHT22;62113;45.624;11.700;2023-01-15T17:45:25;9.40;77.10
63013;DHT22;62113;45.624;11.700;2023-01-15T17:47:51;9.30;77.00
63013;DHT22;62113;45.624;11.700;2023-01-15T17:50:16;9.30;76.70
63013;DHT22;62113;45.624;11.700;2023-01-15T17:52:42;9.30;76.80
63013;DHT22;62113;45.624;11.700;2023-01-15T17:55:11;9.30;76.90